Spanish Hills, CA

6:45 PM PDT on April 24, 2017 (GMT -0700)
Las Posas Knolls | | Change Station

Elev 213 ft 34.24 °N, 119.06 °W | Updated 16 seconds ago

Clear
Clear
67.3 °F
Feels Like 67.3 °F
N
1.0
Wind Variable Wind from South

Today
High -- | Low -- °F
--% Chance of Precip.
Yesterday
High -- | Low -- °F
Precip. -- in
Pressure 29.88 in
Visibility 10.0 miles
Clouds Clear
Dew Point 51 °F
Humidity 55%
Rainfall 0.00 in
Snow Depth Not available.
6:13 AM 7:35 PM
Waning Crescent, 3% visible
METAR KCMA 250055Z 21006KT 10SM CLR 19/11 A2985 RMK AO2 SLP116 T01890106
Pressure 29.88 in
Visibility 10.0 miles
Clouds Clear
Dew Point 51 °F
Humidity 55%
Rainfall 0.00 in
Snow Depth Not available.
6:13 AM 7:35 PM
Waning Crescent, 3% visible
METAR KCMA 250055Z 21006KT 10SM CLR 19/11 A2985 RMK AO2 SLP116 T01890106

Get Your Daily Forecast Email!

Thanks for signing up!

Be on the lookout for a verification email in your inbox.

You'll start receiving severe weather alerts in your inbox..

×

10-Day Weather Forecast

Almanac

Astronomy

Apr. 24, 2017 Rise Set
Actual Time
Civil Twilight
Nautical Twilight
Astronomical Twilight
Moon
Length of Visible Light
Length of Day
Tomorrow will be .
, % of the Moon is Illuminated

Today's Extremes

State Highs State Lows

Community

WunderPhotos

WunderBlog® & News

Nearby

Air Quality

  Air Quality AQ Index Pollutant
Not available.

Snow Depth

Station Depth Elevation

Earthquake Activity

City Distance Mag. Time & Date
Minimum magnitude displayed is 2.5.

Coastal Water Temperatures

Place Temperature

Stations

Nearby Weather Stations

Station Location Temp. Windchill Dew Point Humidity Wind Precip. Elev Updated Type
                   

Watches & Warnings

High Surf Advisory
Issued: 4:55 PM PDT Apr. 24, 2017 – National Weather Service

... High surf advisory remains in effect until 10 PM PDT this
evening...

* surf... of 4 to 8 ft will persist through late this evening. The
surf will slowly diminish late this evening through Tuesday
morning

* impacts... there is an increased risk of ocean drowning. Rip
currents can pull swimmers and surfers out to sea. Waves can
wash people off beaches and rocks... and capsize small boats
nearshore.

* Locations... highest surf will be on west facing beaches.

Precautionary/preparedness actions...

A high surf advisory means that high surf will affect beaches in
the advisory area... producing localized beach erosion and
dangerous swimming conditions. Swim near a lifeguard. If caught
in a rip current, relax and float. Don't swim against the
current. If able, swim in a direction following the shoreline. If
unable to escape, face the shore and call or wave for help.